createdAt,value
2019-02-17T00:03:03.874Z,89.3
2019-02-17T00:08:04.621Z,89.2
2019-02-17T00:12:28.233Z,89.2
2019-02-17T00:17:28.974Z,89.2
2019-02-17T00:22:28.513Z,89.2
2019-02-17T00:27:27.856Z,89.1
2019-02-17T00:32:27.787Z,89.1
2019-02-17T00:37:28.225Z,89.2
2019-02-17T00:42:27.779Z,89.1
2019-02-17T00:47:27.845Z,89.0
2019-02-17T00:52:29.147Z,89.0
2019-02-17T00:57:28.677Z,88.9
2019-02-17T01:02:27.753Z,88.9
2019-02-17T01:07:27.738Z,89.1
2019-02-17T01:12:28.460Z,89.0
2019-02-17T01:17:28.485Z,88.9
2019-02-17T01:22:28.703Z,88.7
2019-02-17T01:27:28.591Z,88.8
2019-02-17T01:32:28.270Z,88.6
2019-02-17T01:37:28.994Z,88.8
2019-02-17T01:42:27.511Z,88.6
2019-02-17T01:47:27.837Z,88.6
2019-02-17T01:52:28.364Z,88.6
2019-02-17T01:57:28.714Z,88.7
2019-02-17T02:02:29.676Z,88.6
2019-02-17T02:07:28.625Z,88.4
2019-02-17T02:12:27.590Z,88.5
2019-02-17T02:17:28.760Z,88.4
2019-02-17T02:22:28.720Z,88.2
2019-02-17T02:27:28.848Z,88.4
2019-02-17T02:32:28.871Z,88.3
2019-02-17T02:37:27.587Z,88.3
2019-02-17T02:42:28.451Z,88.3
2019-02-17T02:47:27.496Z,88.2
2019-02-17T02:52:28.427Z,88.3
2019-02-17T02:57:27.626Z,88.0
2019-02-17T03:02:28.405Z,88.3
2019-02-17T03:07:28.221Z,88.2
2019-02-17T03:12:28.897Z,88.2
2019-02-17T03:17:27.922Z,87.9
2019-02-17T03:22:27.607Z,87.9
2019-02-17T03:27:28.127Z,88.0
2019-02-17T03:32:29.057Z,88.0
2019-02-17T03:37:27.872Z,87.9
2019-02-17T03:42:28.578Z,88.0
2019-02-17T03:47:28.387Z,88.1
2019-02-17T03:52:28.204Z,88.1
2019-02-17T03:57:28.207Z,88.0
2019-02-17T04:02:28.648Z,88.0
2019-02-17T04:07:28.257Z,88.1
2019-02-17T04:12:28.078Z,88.1
2019-02-17T04:17:28.917Z,88.1
2019-02-17T04:22:27.722Z,87.9
2019-02-17T04:27:28.468Z,87.8
2019-02-17T04:32:28.206Z,87.7
2019-02-17T04:37:27.726Z,87.9
2019-02-17T04:42:28.382Z,87.6
2019-02-17T04:47:28.785Z,87.6
2019-02-17T04:52:28.212Z,87.6
2019-02-17T04:57:27.631Z,87.6
2019-02-17T05:02:28.020Z,87.6
2019-02-17T05:07:28.396Z,87.5
2019-02-17T05:12:28.661Z,87.5
2019-02-17T05:17:28.379Z,87.5
2019-02-17T05:22:28.421Z,87.6
2019-02-17T05:27:28.536Z,87.7
2019-02-17T05:32:27.890Z,87.4
2019-02-17T05:37:27.904Z,87.1
2019-02-17T05:42:28.266Z,87.2
2019-02-17T05:47:32.612Z,87.2
2019-02-17T05:52:29.295Z,87.1
2019-02-17T05:57:28.829Z,87.2
2019-02-17T06:02:28.629Z,87.0
2019-02-17T06:07:28.671Z,87.2
2019-02-17T06:12:28.557Z,87.1
2019-02-17T06:17:29.081Z,87.0
2019-02-17T06:22:29.098Z,87.0
2019-02-17T06:27:28.722Z,86.9
2019-02-17T06:32:28.709Z,86.9
2019-02-17T06:37:29.159Z,86.9
2019-02-17T06:42:28.424Z,87.0
2019-02-17T06:47:29.311Z,87.0
2019-02-17T06:52:28.215Z,86.9
2019-02-17T06:57:29.011Z,86.5
2019-02-17T07:02:29.477Z,86.5
2019-02-17T07:07:31.033Z,86.4
2019-02-17T07:12:29.504Z,86.2
2019-02-17T07:17:29.155Z,86.0
2019-02-17T07:22:28.000Z,85.6
2019-02-17T07:27:29.899Z,85.2
2019-02-17T07:32:29.915Z,85.2
2019-02-17T07:37:34.069Z,85.0
2019-02-17T07:42:29.045Z,84.9
2019-02-17T07:47:28.067Z,84.9
2019-02-17T07:52:28.797Z,84.8
2019-02-17T07:57:28.575Z,84.6
2019-02-17T08:02:28.904Z,84.6
2019-02-17T08:07:29.145Z,84.6
2019-02-17T08:12:28.784Z,84.6
2019-02-17T08:17:29.202Z,84.6
2019-02-17T08:22:29.387Z,84.6
2019-02-17T08:27:29.290Z,84.7
2019-02-17T08:32:29.046Z,84.7
2019-02-17T08:37:28.882Z,85.0
2019-02-17T08:42:29.456Z,84.9
2019-02-17T08:47:28.652Z,85.0
2019-02-17T08:52:29.438Z,85.1
2019-02-17T08:57:29.094Z,85.2
2019-02-17T09:02:30.024Z,85.5
2019-02-17T09:07:29.830Z,85.5
2019-02-17T09:12:28.584Z,85.4
2019-02-17T09:17:29.775Z,85.7
2019-02-17T09:22:28.178Z,85.9
2019-02-17T09:27:28.767Z,86.0
2019-02-17T09:32:29.250Z,86.7
2019-02-17T09:37:29.073Z,86.7
2019-02-17T09:42:28.852Z,86.9
2019-02-17T09:47:28.643Z,87.2
2019-02-17T09:52:28.673Z,87.7
2019-02-17T09:57:29.035Z,87.6
2019-02-17T10:02:28.164Z,87.9
2019-02-17T10:07:28.833Z,88.2
2019-02-17T10:12:28.569Z,88.5
2019-02-17T10:17:29.472Z,88.8
2019-02-17T10:22:28.527Z,89.1
2019-02-17T10:27:28.817Z,89.4
2019-02-17T10:32:39.219Z,89.7
2019-02-17T10:37:28.761Z,90.1
2019-02-17T10:42:28.902Z,90.4
2019-02-17T10:47:28.331Z,90.8
2019-02-17T10:52:30.307Z,90.9
2019-02-17T10:57:29.024Z,91.1
2019-02-17T11:02:29.502Z,91.6
2019-02-17T11:07:29.033Z,91.9
2019-02-17T11:12:29.858Z,92.4
2019-02-17T11:17:30.268Z,92.6
2019-02-17T11:22:28.928Z,93.5
2019-02-17T11:27:29.040Z,93.8
2019-02-17T11:32:28.804Z,93.8
2019-02-17T11:37:28.865Z,94.1
2019-02-17T11:42:30.617Z,94.5
2019-02-17T11:47:29.075Z,94.8
2019-02-17T11:52:29.123Z,95.4
2019-02-17T11:57:29.365Z,95.4
2019-02-17T12:02:29.571Z,96.1
2019-02-17T12:07:30.250Z,96.0
2019-02-17T12:12:28.846Z,96.5
2019-02-17T12:17:29.332Z,97.1
2019-02-17T12:22:28.941Z,97.4
2019-02-17T12:27:28.893Z,97.7
2019-02-17T12:32:28.927Z,97.8
2019-02-17T12:37:28.562Z,97.8
2019-02-17T12:42:28.839Z,98.6
2019-02-17T12:47:28.591Z,99.0
2019-02-17T12:52:29.010Z,98.8
2019-02-17T12:57:28.277Z,99.0
2019-02-17T13:02:28.512Z,99.9
2019-02-17T13:07:29.206Z,99.9
2019-02-17T13:12:28.649Z,99.9
2019-02-17T13:17:28.939Z,99.9
2019-02-17T13:22:29.356Z,99.9
2019-02-17T13:27:28.316Z,99.9
2019-02-17T13:32:29.272Z,99.9
2019-02-17T13:37:30.622Z,99.9
2019-02-17T13:42:28.770Z,99.9
2019-02-17T13:47:29.555Z,99.9
2019-02-17T13:52:29.190Z,99.9
2019-02-17T13:57:28.935Z,99.9
2019-02-17T14:02:28.784Z,99.9
2019-02-17T14:07:29.638Z,99.9
2019-02-17T14:12:29.115Z,99.9
2019-02-17T14:17:29.147Z,99.9
2019-02-17T14:22:29.368Z,99.2
2019-02-17T14:27:28.869Z,95.8
2019-02-17T14:32:28.659Z,95.8
2019-02-17T14:37:29.277Z,94.3
2019-02-17T14:42:30.193Z,92.1
2019-02-17T14:47:28.472Z,90.4
2019-02-17T14:52:28.797Z,87.7
2019-02-17T14:57:28.317Z,86.4
2019-02-17T15:02:29.501Z,84.1
2019-02-17T15:07:28.914Z,83.0
2019-02-17T15:12:29.059Z,81.0
2019-02-17T15:17:29.545Z,80.4
2019-02-17T15:22:28.536Z,80.0
2019-02-17T15:27:28.539Z,78.4
2019-02-17T15:32:29.421Z,78.2
2019-02-17T15:37:28.819Z,77.2
2019-02-17T15:42:29.607Z,77.2
2019-02-17T15:47:28.691Z,77.7
2019-02-17T15:52:29.972Z,76.2
2019-02-17T15:57:29.040Z,76.2
2019-02-17T16:02:28.791Z,76.6
2019-02-17T16:07:29.694Z,77.3
2019-02-17T16:12:28.486Z,77.9
2019-02-17T16:17:29.120Z,78.0
2019-02-17T16:22:29.811Z,78.5
2019-02-17T16:27:28.568Z,80.1
2019-02-17T16:32:28.497Z,81.0
2019-02-17T16:37:29.166Z,82.7
2019-02-17T16:42:29.619Z,84.3
2019-02-17T16:47:28.477Z,87.4
2019-02-17T16:52:28.289Z,95.2
2019-02-17T16:57:28.662Z,95.0
2019-02-17T17:02:29.270Z,98.8
2019-02-17T17:07:29.039Z,99.8
2019-02-17T17:12:28.351Z,99.9
2019-02-17T17:17:28.468Z,99.9
2019-02-17T17:22:29.024Z,99.8
2019-02-17T17:27:29.044Z,99.7
2019-02-17T17:32:29.101Z,99.7
2019-02-17T17:37:28.174Z,99.3
2019-02-17T17:42:28.845Z,98.8
2019-02-17T17:47:28.380Z,98.2
2019-02-17T17:52:28.467Z,98.0
2019-02-17T17:57:28.347Z,97.6
2019-02-17T18:02:29.401Z,97.2
2019-02-17T18:07:29.923Z,96.9
2019-02-17T18:12:29.020Z,96.6
2019-02-17T18:17:28.617Z,96.3
2019-02-17T18:22:27.774Z,96.2
2019-02-17T18:27:28.025Z,95.8
2019-02-17T18:32:28.359Z,95.4
2019-02-17T18:37:28.845Z,95.1
2019-02-17T18:42:28.636Z,94.9
2019-02-17T18:47:29.432Z,94.8
2019-02-17T18:52:28.962Z,94.6
2019-02-17T18:57:28.537Z,94.1
2019-02-17T19:02:28.196Z,94.0
2019-02-17T19:07:28.283Z,93.8
2019-02-17T19:12:28.886Z,93.5
2019-02-17T19:17:28.376Z,93.2
2019-02-17T19:22:29.109Z,93.0
2019-02-17T19:27:28.461Z,92.5
2019-02-17T19:32:29.687Z,92.2
2019-02-17T19:37:28.449Z,91.7
2019-02-17T19:42:28.734Z,91.2
2019-02-17T19:47:28.559Z,90.9
2019-02-17T19:52:28.861Z,90.5
2019-02-17T19:57:28.753Z,90.3
2019-02-17T20:02:28.294Z,90.2
2019-02-17T20:07:28.707Z,90.2
2019-02-17T20:12:28.922Z,90.2
2019-02-17T20:17:30.681Z,90.2
2019-02-17T20:22:28.284Z,90.0
2019-02-17T20:27:28.181Z,89.9
2019-02-17T20:32:27.814Z,89.9
2019-02-17T20:37:27.414Z,89.4
2019-02-17T20:42:28.131Z,89.2
2019-02-17T20:47:28.342Z,89.3
2019-02-17T20:52:28.165Z,89.0
2019-02-17T20:57:28.320Z,88.9
2019-02-17T21:02:28.106Z,88.9
2019-02-17T21:07:28.905Z,88.8
2019-02-17T21:12:28.427Z,88.8
2019-02-17T21:17:28.498Z,88.6
2019-02-17T21:22:28.485Z,88.6
2019-02-17T21:27:28.499Z,88.5
2019-02-17T21:32:28.842Z,88.3
2019-02-17T21:37:28.325Z,88.3
2019-02-17T21:42:27.968Z,88.2
2019-02-17T21:47:28.392Z,88.3
2019-02-17T21:52:28.463Z,88.3
2019-02-17T21:57:28.162Z,88.2
2019-02-17T22:02:29.104Z,88.0
2019-02-17T22:07:28.398Z,88.0
2019-02-17T22:12:28.690Z,87.9
2019-02-17T22:17:28.560Z,87.9
2019-02-17T22:22:28.195Z,87.6
2019-02-17T22:27:28.561Z,87.4
2019-02-17T22:32:28.492Z,87.4
2019-02-17T22:37:28.113Z,87.1
2019-02-17T22:42:27.958Z,87.0
2019-02-17T22:47:28.416Z,87.0
2019-02-17T22:52:28.925Z,86.7
2019-02-17T22:57:28.714Z,86.7
2019-02-17T23:02:28.379Z,86.7
2019-02-17T23:07:28.604Z,86.5
2019-02-17T23:12:28.545Z,86.4
2019-02-17T23:23:04.873Z,86.2
2019-02-17T23:28:04.669Z,86.2
2019-02-17T23:33:04.149Z,86.2
2019-02-17T23:38:04.254Z,85.8
2019-02-17T23:43:04.623Z,85.8
2019-02-17T23:48:04.117Z,85.6
2019-02-17T23:53:04.408Z,85.6
2019-02-17T23:58:04.129Z,85.6
